Time;durP1;ratioP1;P1;durP2;ratioP2;P2;SDS_P1;SDS_P2;PMS_P1;PMS_P2;Temp;Humidity;BMP_temperature;BMP_pressure;BME280_temperature;BME280_humidity;BME280_pressure;Samples;Min_cycle;Max_cycle;Signal;HPM_P1;HPM_P2
2023/04/13 00:09:32;;;;;;;1076.03;990.05;;;;;;;21.82;47.92;99310.25;20679768;28;20039;-74
2023/04/13 00:19:35;;;;;;;1089.82;999.28;;;;;;;21.80;48.38;99312.22;20672108;28;20405;-74
2023/04/13 00:29:36;;;;;;;1129.68;999.90;;;;;;;21.77;47.75;99309.88;20677680;28;20045;-74
2023/04/13 00:39:36;;;;;;;1117.70;999.90;;;;;;;21.76;48.14;99301.13;20671726;28;20053;-73
2023/04/13 00:49:37;;;;;;;1108.38;999.90;;;;;;;21.71;48.20;99298.94;20663575;28;20149;-74
2023/04/13 00:59:38;;;;;;;1089.25;999.90;;;;;;;21.67;48.17;99291.50;20682304;28;20039;-73
2023/04/13 01:10:00;;;;;;;1066.25;981.17;;;;;;;21.66;48.24;99295.13;20678252;28;20069;-74
2023/04/13 01:20:12;;;;;;;1125.07;999.90;;;;;;;21.63;48.29;99283.06;20684007;28;20154;-74
2023/04/13 01:30:17;;;;;;;1125.37;999.90;;;;;;;21.64;48.12;99283.91;20676778;28;20038;-74
2023/04/13 01:40:21;;;;;;;1132.88;999.90;;;;;;;21.62;48.07;99284.06;20684163;28;20037;-74
2023/04/13 01:50:30;;;;;;;1091.05;999.90;;;;;;;21.61;48.09;99289.47;20679424;28;20140;-74
2023/04/13 02:00:34;;;;;;;1120.05;999.90;;;;;;;21.57;48.17;99297.66;20673365;28;20042;-74
2023/04/13 02:10:41;;;;;;;1121.00;999.90;;;;;;;21.58;48.27;99298.47;20673561;28;20050;-74
2023/04/13 02:20:41;;;;;;;1130.18;999.90;;;;;;;21.58;48.04;99301.09;20684988;28;20455;-74
2023/04/13 02:30:42;;;;;;;1114.45;999.90;;;;;;;21.53;48.51;99301.53;20682612;28;20136;-73
2023/04/13 02:40:42;;;;;;;1150.03;999.90;;;;;;;21.52;48.06;99296.41;20678363;28;20394;-74
2023/04/13 02:50:43;;;;;;;1145.47;999.90;;;;;;;21.53;47.93;99295.44;20688059;28;20073;-74
2023/04/13 03:00:47;;;;;;;1149.10;999.90;;;;;;;21.50;48.07;99295.75;20676619;28;20533;-74
2023/04/13 03:10:47;;;;;;;1146.07;999.90;;;;;;;21.50;47.95;99290.47;20671588;28;20042;-74
2023/04/13 03:20:48;;;;;;;1145.13;999.90;;;;;;;21.49;48.05;99286.19;20669371;28;20050;-73
2023/04/13 03:30:48;;;;;;;1143.28;999.90;;;;;;;21.47;48.03;99282.84;20674736;28;20045;-74
2023/04/13 03:40:50;;;;;;;1138.07;999.90;;;;;;;21.48;47.75;99276.63;20662220;28;20046;-71
2023/04/13 03:50:52;;;;;;;1132.13;999.90;;;;;;;21.53;49.08;99283.09;20654439;28;20077;-70
2023/04/13 04:00:54;;;;;;;1140.90;999.90;;;;;;;21.56;48.57;99281.97;20661174;28;20375;-70
2023/04/13 04:10:54;;;;;;;1146.72;999.90;;;;;;;21.53;48.92;99284.91;20664050;28;20038;-70
2023/04/13 04:20:55;;;;;;;1137.60;999.90;;;;;;;21.55;49.04;99288.22;20662151;28;20113;-72
2023/04/13 04:31:00;;;;;;;1122.10;999.90;;;;;;;21.55;49.03;99296.13;20658659;28;20145;-73
2023/04/13 04:41:01;;;;;;;1135.78;999.90;;;;;;;21.57;48.66;99302.94;20645680;28;20058;-72
2023/04/13 04:51:01;;;;;;;1128.95;999.90;;;;;;;21.49;47.32;99292.25;20658439;28;20053;-73
2023/04/13 05:01:02;;;;;;;1134.07;999.90;;;;;;;21.49;45.66;99297.53;20658331;28;20120;-73
2023/04/13 05:11:05;;;;;;;1134.70;999.90;;;;;;;21.37;42.34;99302.19;20686197;28;20043;-70
2023/04/13 05:21:06;;;;;;;1151.63;999.90;;;;;;;21.43;43.89;99296.34;20669260;28;20046;-71
2023/04/13 05:31:08;;;;;;;1157.85;999.90;;;;;;;21.46;45.43;99287.31;20673091;28;20052;-79
2023/04/13 05:41:09;;;;;;;1144.25;999.90;;;;;;;21.54;47.33;99299.72;20669336;28;20060;-79
2023/04/13 05:51:14;;;;;;;1147.72;999.90;;;;;;;21.55;47.60;99301.38;20677592;28;20038;-81
2023/04/13 06:01:15;;;;;;;1155.93;999.90;;;;;;;21.56;47.76;99288.09;20673516;28;20589;-76
2023/04/13 06:11:16;;;;;;;1156.93;999.90;;;;;;;21.54;48.42;99299.72;20668588;28;20058;-75
2023/04/13 06:21:19;;;;;;;1148.75;999.90;;;;;;;21.56;47.82;99301.25;20676073;28;20045;-72
2023/04/13 06:31:20;;;;;;;;;;;;;;;21.58;48.73;99301.09;20672180;28;21113;-76
2023/04/13 06:41:22;;;;;;;1143.43;999.90;;;;;;;21.58;48.00;99304.59;20687511;28;20359;-75
2023/04/13 06:51:22;;;;;;;1133.63;999.90;;;;;;;21.62;48.07;99306.91;20689180;28;20068;-75
2023/04/13 07:01:24;;;;;;;1157.53;999.90;;;;;;;21.66;48.81;99324.09;20681000;28;20065;-74
2023/04/13 07:11:30;;;;;;;1165.07;999.90;;;;;;;21.69;48.55;99326.41;20664595;28;20042;-75
2023/04/13 07:21:32;;;;;;;1169.03;999.90;;;;;;;21.69;48.80;99324.63;20676104;28;20053;-76
2023/04/13 07:31:33;;;;;;;1165.27;999.90;;;;;;;21.71;48.50;99333.19;20676656;28;20391;-74
2023/04/13 07:41:34;;;;;;;1165.07;999.90;;;;;;;;;;20668945;28;20125;-74
2023/04/13 07:51:35;;;;;;;1160.88;999.90;;;;;;;21.04;34.80;99319.34;20668870;28;20561;-74
2023/04/13 08:01:35;;;;;;;1131.53;999.90;;;;;;;21.23;37.52;99323.72;20665842;28;20498;-77
2023/04/13 08:11:36;;;;;;;1137.68;999.90;;;;;;;21.37;39.73;99327.69;20676622;28;20049;-75
2023/04/13 08:21:39;;;;;;;1142.68;999.90;;;;;;;21.49;41.31;99328.31;20667865;28;20114;-73
2023/04/13 08:31:40;;;;;;;1110.45;999.90;;;;;;;21.55;41.54;99333.81;20672494;28;20077;-73
2023/04/13 08:41:48;;;;;;;1126.28;999.90;;;;;;;21.59;42.35;99334.38;20682000;28;20070;-74
2023/04/13 08:51:49;;;;;;;1112.20;999.90;;;;;;;21.63;43.39;99330.50;20694034;28;20034;-73
2023/04/13 09:01:51;;;;;;;1115.80;999.90;;;;;;;21.67;44.06;99317.84;20696261;28;20050;-73
2023/04/13 09:11:52;;;;;;;1123.47;999.90;;;;;;;21.70;44.21;99317.53;20694749;28;20050;-73
2023/04/13 09:21:54;;;;;;;1103.38;999.90;;;;;;;21.74;44.66;99313.66;20697850;28;20053;-74
2023/04/13 09:31:54;;;;;;;1121.20;999.90;;;;;;;21.47;35.18;99302.13;20704574;28;20050;-72
2023/04/13 09:41:56;;;;;;;1137.10;999.90;;;;;;;21.66;39.53;99303.84;20693563;28;20085;-73
2023/04/13 09:51:58;;;;;;;1134.20;999.90;;;;;;;21.74;40.88;99296.03;20685087;28;20112;-71
2023/04/13 10:02:00;;;;;;;1164.32;999.90;;;;;;;21.80;41.58;99293.75;20680928;28;20042;-72
2023/04/13 10:12:02;;;;;;;1161.10;999.90;;;;;;;21.83;41.89;99283.75;20703761;28;20239;-72
2023/04/13 10:22:04;;;;;;;1163.70;999.90;;;;;;;21.86;43.12;99293.16;20709728;28;20078;-73
2023/04/13 10:32:05;;;;;;;1167.10;999.90;;;;;;;21.89;43.32;99293.69;20682334;28;20501;-73
2023/04/13 10:42:09;;;;;;;1168.88;999.90;;;;;;;21.91;44.12;99289.13;20680325;28;20319;-71
2023/04/13 10:52:10;;;;;;;1173.05;999.90;;;;;;;21.92;44.84;99289.94;20681150;28;20379;-72
2023/04/13 11:02:13;;;;;;;1171.97;999.90;;;;;;;21.91;44.49;99256.66;20680080;28;20041;-71
2023/04/13 11:12:13;;;;;;;;;;;;;;;21.94;43.91;99252.91;20680085;28;20042;-71
2023/04/13 11:22:17;;;;;;;1175.57;999.90;;;;;;;21.97;45.17;99252.59;20674174;28;19932;-72
2023/04/13 11:32:18;;;;;;;1171.85;999.90;;;;;;;21.96;45.63;99254.41;21477392;23;20136;-74
2023/04/13 11:42:18;;;;;;;1174.30;999.90;;;;;;;21.99;45.46;99237.44;20710836;28;20050;-74
2023/04/13 11:52:19;;;;;;;1174.65;999.90;;;;;;;22.01;45.23;99231.03;20731415;28;20086;-74
2023/04/13 12:02:30;;;;;;;1178.63;999.90;;;;;;;22.05;44.54;99235.03;20710228;28;20046;-76
2023/04/13 12:12:31;;;;;;;1179.18;999.90;;;;;;;22.17;46.09;99224.25;20686994;28;20078;-76
2023/04/13 12:22:40;;;;;;;1181.63;999.90;;;;;;;22.15;45.45;99202.47;20691665;28;20050;-77
2023/04/13 12:32:46;;;;;;;1180.03;999.90;;;;;;;22.14;45.07;99201.66;21125034;23;20034;-72
2023/04/13 12:42:47;;;;;;;1180.35;999.90;;;;;;;22.16;45.20;99185.69;20747754;28;20152;-71
2023/04/13 12:52:49;;;;;;;1185.28;999.90;;;;;;;22.16;45.60;99181.22;20758638;28;20091;-72
2023/04/13 13:02:51;;;;;;;1173.78;999.90;;;;;;;22.20;46.00;99177.31;20753847;28;20757;-73
2023/04/13 13:12:52;;;;;;;1178.83;999.90;;;;;;;22.21;46.23;99173.66;20757994;28;20046;-74
2023/04/13 13:22:52;;;;;;;1185.47;999.90;;;;;;;22.21;46.27;99168.41;20745241;28;20049;-73
2023/04/13 13:33:00;;;;;;;1182.18;999.90;;;;;;;22.20;44.75;99169.41;20767992;28;20632;-72
2023/04/13 13:43:03;;;;;;;1174.35;999.90;;;;;;;22.14;39.44;99150.72;20760791;28;20057;-71
2023/04/13 13:53:17;;;;;;;1167.68;999.90;;;;;;;22.07;38.68;99153.16;20766231;28;20065;-71
2023/04/13 14:03:17;;;;;;;1162.65;999.90;;;;;;;22.05;38.72;99149.84;20766529;28;20057;-71
2023/04/13 14:13:26;;;;;;;1159.93;999.90;;;;;;;22.00;37.50;99131.88;20760958;28;20133;-70
2023/04/13 14:23:26;;;;;;;1169.38;999.90;;;;;;;21.94;36.30;99132.47;20743463;28;20049;-71
2023/04/13 14:33:28;;;;;;;1173.97;999.90;;;;;;;21.94;38.68;99127.22;20729379;28;20459;-70
2023/04/13 14:43:28;;;;;;;1174.30;999.90;;;;;;;21.97;39.92;99129.56;20736734;28;20056;-71
2023/04/13 14:53:29;;;;;;;1174.75;999.90;;;;;;;21.98;40.73;99130.38;20723030;28;20065;-70
2023/04/13 15:03:30;;;;;;;1173.07;999.90;;;;;;;21.96;41.65;99129.69;20717608;28;20037;-70
2023/04/13 15:13:30;;;;;;;1174.50;999.90;;;;;;;21.95;40.91;99130.66;20743262;28;20053;-74
2023/04/13 15:23:32;;;;;;;1174.50;999.90;;;;;;;21.78;37.77;99132.38;20769140;28;20052;-75
2023/04/13 15:33:32;;;;;;;1169.38;999.90;;;;;;;21.82;38.34;99144.25;20763867;28;20065;-74
2023/04/13 15:43:34;;;;;;;1171.80;999.90;;;;;;;21.80;39.78;99151.47;20760184;28;20065;-73
2023/04/13 15:53:34;;;;;;;1174.72;999.90;;;;;;;21.81;40.83;99150.50;20729617;28;20117;-74
2023/04/13 16:03:35;;;;;;;1172.22;999.90;;;;;;;21.82;40.78;99145.06;20740920;28;20077;-74
2023/04/13 16:13:37;;;;;;;1172.88;999.90;;;;;;;21.81;39.92;99130.25;20719304;28;20550;-77
2023/04/13 16:23:39;;;;;;;1173.40;999.90;;;;;;;21.83;39.64;99125.66;20732588;28;20305;-74
2023/04/13 16:33:40;;;;;;;1175.53;999.90;;;;;;;21.83;39.67;99128.28;20715372;28;20046;-76
2023/04/13 16:43:40;;;;;;;1174.70;999.90;;;;;;;21.86;40.33;99135.06;20718778;28;20106;-75
2023/04/13 16:53:42;;;;;;;1175.15;999.90;;;;;;;21.88;41.66;99126.00;20725262;28;20057;-74
2023/04/13 17:03:44;;;;;;;1173.07;999.90;;;;;;;21.89;42.96;99122.41;20717006;28;20349;-76
2023/04/13 17:13:45;;;;;;;1177.97;999.90;;;;;;;21.91;43.56;99128.34;20700396;28;20141;-73
2023/04/13 17:23:46;;;;;;;1181.50;999.90;;;;;;;21.94;44.35;99143.03;20706653;28;21080;-74
2023/04/13 17:33:47;;;;;;;1176.70;999.90;;;;;;;21.96;45.02;99162.16;20703602;28;20065;-71
2023/04/13 17:43:47;;;;;;;1175.25;999.90;;;;;;;21.96;44.80;99156.03;20701480;28;20508;-71
2023/04/13 17:53:48;;;;;;;1177.40;999.90;;;;;;;21.95;45.13;99171.03;20719558;28;20042;-71
2023/04/13 18:03:48;;;;;;;1179.80;999.90;;;;;;;21.96;46.39;99174.50;20712234;28;20354;-70
2023/04/13 18:13:49;;;;;;;1178.55;999.90;;;;;;;21.96;45.45;99196.41;20734895;28;20041;-70
2023/04/13 18:23:50;;;;;;;1178.28;999.90;;;;;;;21.95;46.63;99196.53;20728242;28;20114;-71
2023/04/13 18:33:51;;;;;;;1176.82;999.90;;;;;;;21.94;46.86;99195.72;20742776;28;20197;-69
2023/04/13 18:43:52;;;;;;;1179.88;999.90;;;;;;;21.96;46.87;99199.06;20735247;28;20041;-69
2023/04/13 18:53:53;;;;;;;1174.90;999.90;;;;;;;21.95;48.05;99196.53;20728671;28;20201;-74
2023/04/13 19:03:54;;;;;;;1174.15;999.90;;;;;;;21.95;47.21;99202.66;20728820;28;20280;-72
2023/04/13 19:13:57;;;;;;;1176.88;999.90;;;;;;;21.92;48.53;99197.69;20748405;28;20030;-73
2023/04/13 19:24:00;;;;;;;1178.22;999.90;;;;;;;21.91;47.81;99196.88;20763018;28;20052;-73
2023/04/13 19:34:04;;;;;;;1175.18;999.90;;;;;;;21.90;47.55;99203.13;20737003;28;20164;-74
2023/04/13 19:44:07;;;;;;;1173.07;999.90;;;;;;;21.87;47.63;99195.53;20722570;28;20404;-73
2023/04/13 19:54:08;;;;;;;1175.28;999.90;;;;;;;21.82;47.56;99176.69;20738761;28;20033;-73
2023/04/13 20:04:09;;;;;;;1174.38;999.90;;;;;;;21.78;47.46;99159.53;20736029;28;20099;-73
2023/04/13 20:14:12;;;;;;;1173.47;999.90;;;;;;;21.79;47.07;99152.44;20740673;28;20480;-74
2023/04/13 20:24:13;;;;;;;1176.05;999.90;;;;;;;21.83;47.20;99146.72;20735481;28;20041;-72
2023/04/13 20:34:14;;;;;;;1169.85;999.90;;;;;;;21.84;47.64;99129.94;20742213;28;20069;-72
2023/04/13 20:44:22;;;;;;;1175.82;999.90;;;;;;;21.81;47.97;99109.16;20747821;28;20323;-73
2023/04/13 20:54:22;;;;;;;1175.57;999.90;;;;;;;21.81;48.18;99121.50;20729536;28;20350;-73
2023/04/13 21:04:23;;;;;;;1170.85;999.90;;;;;;;21.82;47.75;99129.25;20740973;28;20042;-72
2023/04/13 21:14:24;;;;;;;1172.85;999.90;;;;;;;21.81;48.18;99117.06;20729822;28;20680;-73
2023/04/13 21:24:24;;;;;;;1175.03;999.90;;;;;;;21.79;48.06;99099.75;20745861;28;20090;-73
2023/04/13 21:34:26;;;;;;;1173.50;999.90;;;;;;;21.80;48.51;99104.91;20767558;28;20058;-72
2023/04/13 21:44:28;;;;;;;1172.78;999.90;;;;;;;21.79;48.29;99091.84;20765396;28;20044;-73
2023/04/13 21:54:29;;;;;;;1168.80;999.90;;;;;;;21.76;48.79;99095.63;20756867;28;20743;-73
2023/04/13 22:04:30;;;;;;;1166.72;999.90;;;;;;;21.74;48.64;99077.34;20759246;28;20053;-72
2023/04/13 22:14:30;;;;;;;1173.20;999.90;;;;;;;21.74;49.00;99084.44;20765147;28;20045;-73
2023/04/13 22:24:31;;;;;;;1171.72;999.90;;;;;;;21.72;48.85;99071.38;20754638;28;20295;-74
2023/04/13 22:34:33;;;;;;;1172.57;999.90;;;;;;;21.69;48.89;99063.81;20758165;28;20049;-74
2023/04/13 22:44:34;;;;;;;1166.43;999.90;;;;;;;21.67;48.58;99028.06;20759156;28;20084;-73
2023/04/13 22:54:36;;;;;;;1171.32;999.90;;;;;;;21.67;48.84;98999.09;20750080;28;20363;-73
2023/04/13 23:04:36;;;;;;;1168.65;999.90;;;;;;;21.67;48.59;98992.00;20750674;28;20104;-72
2023/04/13 23:14:37;;;;;;;1171.03;999.90;;;;;;;21.66;48.94;98992.97;20748139;28;20041;-72
2023/04/13 23:24:38;;;;;;;1167.47;999.90;;;;;;;21.65;48.71;98975.50;20745550;28;20075;-74
2023/04/13 23:34:39;;;;;;;1169.78;999.90;;;;;;;21.62;48.77;98951.28;20752578;28;20140;-74
2023/04/13 23:44:39;;;;;;;1170.82;999.90;;;;;;;21.62;49.12;98931.06;20747243;28;20054;-73
2023/04/13 23:54:40;;;;;;;1168.18;999.90;;;;;;;21.59;49.07;98939.28;20746321;28;20057;-74
